DAL1947 KATL-MYNN
Flight info
| Callsign | DAL1947 |
|---|---|
| Flight time | N/A |
| Altitude | 35000 |
| Route | VRSTY3 NOKIE DCT YANTI Q89 SHRKS DCT DEBRL Q97 MALET DCT TRV DCT ZFP BR63V MELON |
| Aircraft | B739/M-SDE2E3FGHIRWXY/LB1 |
Departure
| Time | 2026-05-03 20:27 |
|---|---|
| Airport | Hartsfield Jackson Atlanta International Airport (KATL) |
Arrival
| Time | N/A |
|---|---|
| Airport | Lynden Pindling International Airport (MYNN) |
| Time | Latitude | Longitude | Altitude | Speed | Heading |
|---|---|---|---|---|---|
| 2026-05-03 20:15 | 33.64012 | -84.43018 | 1034 ft | 3 kts | 90° |
| 2026-05-03 20:15 | 33.64012 | -84.43037 | 1034 ft | 3 kts | 96° |
| 2026-05-03 20:15 | 33.64016 | -84.43057 | 1034 ft | 3 kts | 137° |
| 2026-05-03 20:15 | 33.64032 | -84.43065 | 1034 ft | 3 kts | 175° |
| 2026-05-03 20:16 | 33.64044 | -84.43066 | 1034 ft | 0 kts | 180° |
| 2026-05-03 20:19 | 33.64040 | -84.43066 | 1034 ft | 3 kts | 180° |
| 2026-05-03 20:20 | 33.64015 | -84.43066 | 1034 ft | 4 kts | 180° |
| 2026-05-03 20:20 | 33.63990 | -84.43067 | 1034 ft | 4 kts | 181° |
| 2026-05-03 20:20 | 33.63965 | -84.43067 | 1034 ft | 4 kts | 181° |
| 2026-05-03 20:20 | 33.63937 | -84.43068 | 1034 ft | 5 kts | 181° |
| 2026-05-03 20:21 | 33.63893 | -84.43070 | 1034 ft | 8 kts | 181° |
| 2026-05-03 20:21 | 33.63820 | -84.43068 | 1034 ft | 12 kts | 178° |
| 2026-05-03 20:21 | 33.63739 | -84.43065 | 1034 ft | 11 kts | 178° |
| 2026-05-03 20:21 | 33.63672 | -84.43026 | 1034 ft | 11 kts | 120° |
| 2026-05-03 20:22 | 33.63665 | -84.42936 | 1034 ft | 11 kts | 89° |
| 2026-05-03 20:22 | 33.63665 | -84.42836 | 1034 ft | 15 kts | 90° |
| 2026-05-03 20:22 | 33.63657 | -84.42691 | 1035 ft | 20 kts | 93° |
| 2026-05-03 20:22 | 33.63655 | -84.42515 | 1035 ft | 21 kts | 90° |
| 2026-05-03 20:23 | 33.63657 | -84.42338 | 1035 ft | 21 kts | 89° |
| 2026-05-03 20:23 | 33.63656 | -84.42169 | 1035 ft | 20 kts | 90° |
| 2026-05-03 20:23 | 33.63657 | -84.42003 | 1035 ft | 19 kts | 90° |
| 2026-05-03 20:23 | 33.63655 | -84.41845 | 1034 ft | 19 kts | 91° |
| 2026-05-03 20:24 | 33.63655 | -84.41683 | 1034 ft | 21 kts | 89° |
| 2026-05-03 20:24 | 33.63656 | -84.41488 | 1034 ft | 24 kts | 90° |
| 2026-05-03 20:24 | 33.63655 | -84.41291 | 1034 ft | 23 kts | 90° |
| 2026-05-03 20:24 | 33.63655 | -84.41103 | 1034 ft | 22 kts | 90° |
| 2026-05-03 20:25 | 33.63656 | -84.40958 | 1034 ft | 14 kts | 89° |
| 2026-05-03 20:25 | 33.63651 | -84.40852 | 1035 ft | 11 kts | 109° |
| 2026-05-03 20:25 | 33.63592 | -84.40827 | 1035 ft | 8 kts | 184° |
| 2026-05-03 20:25 | 33.63537 | -84.40830 | 1035 ft | 8 kts | 180° |
| 2026-05-03 20:26 | 33.63489 | -84.40834 | 1035 ft | 6 kts | 208° |
| 2026-05-03 20:26 | 33.63473 | -84.40879 | 1035 ft | 6 kts | 267° |
| 2026-05-03 20:26 | 33.63472 | -84.40881 | 1035 ft | 0 kts | 267° |
| 2026-05-03 20:26 | 33.63470 | -84.40984 | 1035 ft | 42 kts | 270° |
| 2026-05-03 20:27 | 33.63473 | -84.41630 | 1033 ft | 111 kts | 270° |
| 2026-05-03 20:27 | 33.63478 | -84.42784 | 1038 ft | 163 kts | 271° |
| 2026-05-03 20:27 | 33.63497 | -84.44259 | 1368 ft | 182 kts | 271° |
| 2026-05-03 20:27 | 33.63499 | -84.45710 | 2428 ft | 163 kts | 271° |
| 2026-05-03 20:28 | 33.63497 | -84.47050 | 3274 ft | 161 kts | 272° |
| 2026-05-03 20:28 | 33.63478 | -84.48468 | 3713 ft | 181 kts | 270° |
| 2026-05-03 20:28 | 33.63468 | -84.50088 | 3961 ft | 209 kts | 271° |
| 2026-05-03 20:28 | 33.63464 | -84.51923 | 4352 ft | 226 kts | 270° |
| 2026-05-03 20:29 | 33.63461 | -84.53881 | 4697 ft | 247 kts | 270° |
| 2026-05-03 20:29 | 33.63460 | -84.55994 | 5264 ft | 258 kts | 271° |
| 2026-05-03 20:29 | 33.63460 | -84.58154 | 6142 ft | 260 kts | 271° |
| 2026-05-03 20:29 | 33.63456 | -84.60342 | 6937 ft | 266 kts | 271° |
| 2026-05-03 20:30 | 33.63455 | -84.62572 | 7770 ft | 268 kts | 271° |
| 2026-05-03 20:30 | 33.63149 | -84.64797 | 8529 ft | 275 kts | 248° |
| 2026-05-03 20:30 | 33.62031 | -84.66666 | 9335 ft | 282 kts | 224° |
| 2026-05-03 20:30 | 33.60387 | -84.67999 | 10154 ft | 288 kts | 213° |
| 2026-05-03 20:31 | 33.58614 | -84.69161 | 10884 ft | 293 kts | 205° |
| 2026-05-03 20:31 | 33.56584 | -84.69577 | 11623 ft | 302 kts | 179° |
| 2026-05-03 20:31 | 33.54485 | -84.69247 | 12400 ft | 306 kts | 173° |
| 2026-05-03 20:31 | 33.52366 | -84.68808 | 13134 ft | 310 kts | 173° |
| 2026-05-03 20:32 | 33.50222 | -84.68366 | 13862 ft | 314 kts | 173° |
| 2026-05-03 20:32 | 33.48054 | -84.67939 | 14545 ft | 316 kts | 174° |
| 2026-05-03 20:32 | 33.45875 | -84.67525 | 15233 ft | 318 kts | 174° |
| 2026-05-03 20:32 | 33.43679 | -84.67028 | 15878 ft | 325 kts | 164° |
| 2026-05-03 20:33 | 33.41707 | -84.65675 | 16451 ft | 337 kts | 140° |
| 2026-05-03 20:33 | 33.40212 | -84.63383 | 16610 ft | 360 kts | 123° |
| 2026-05-03 20:33 | 33.38924 | -84.60754 | 16758 ft | 379 kts | 121° |
| 2026-05-03 20:33 | 33.37610 | -84.57946 | 16890 ft | 397 kts | 120° |
| 2026-05-03 20:34 | 33.36238 | -84.54994 | 17173 ft | 410 kts | 120° |
| 2026-05-03 20:34 | 33.34836 | -84.51998 | 17708 ft | 414 kts | 121° |
| 2026-05-03 20:34 | 33.33418 | -84.49000 | 18357 ft | 416 kts | 121° |
| 2026-05-03 20:34 | 33.31978 | -84.45985 | 18865 ft | 419 kts | 121° |
| 2026-05-03 20:35 | 33.30514 | -84.42939 | 19384 ft | 423 kts | 122° |
| 2026-05-03 20:35 | 33.29041 | -84.39888 | 19888 ft | 426 kts | 122° |
| 2026-05-03 20:35 | 33.27568 | -84.36845 | 20407 ft | 429 kts | 122° |
| 2026-05-03 20:35 | 33.26068 | -84.33748 | 20915 ft | 432 kts | 122° |
| 2026-05-03 20:36 | 33.24538 | -84.30590 | 21413 ft | 435 kts | 122° |
| 2026-05-03 20:36 | 33.23037 | -84.27496 | 21885 ft | 438 kts | 122° |
| 2026-05-03 20:36 | 33.21501 | -84.24332 | 22356 ft | 442 kts | 122° |
| 2026-05-03 20:36 | 33.19951 | -84.21141 | 22831 ft | 445 kts | 122° |
| 2026-05-03 20:37 | 33.18391 | -84.17932 | 23301 ft | 448 kts | 122° |
| 2026-05-03 20:37 | 33.16821 | -84.14706 | 23747 ft | 451 kts | 123° |
| 2026-05-03 20:37 | 33.15237 | -84.11454 | 24107 ft | 455 kts | 123° |
| 2026-05-03 20:37 | 33.13641 | -84.08179 | 24465 ft | 459 kts | 123° |
| 2026-05-03 20:38 | 33.12030 | -84.04873 | 24823 ft | 462 kts | 123° |
| 2026-05-03 20:38 | 33.10400 | -84.01537 | 25169 ft | 466 kts | 123° |
| 2026-05-03 20:38 | 33.08693 | -83.98251 | 25493 ft | 466 kts | 131° |
| 2026-05-03 20:38 | 33.06433 | -83.95603 | 25798 ft | 459 kts | 148° |
| 2026-05-03 20:39 | 33.03821 | -83.93414 | 26196 ft | 459 kts | 151° |
| 2026-05-03 20:39 | 33.01175 | -83.91271 | 26546 ft | 461 kts | 151° |
| 2026-05-03 20:39 | 32.98493 | -83.89104 | 26867 ft | 465 kts | 151° |
| 2026-05-03 20:39 | 32.95815 | -83.86918 | 27201 ft | 468 kts | 151° |
| 2026-05-03 20:40 | 32.93120 | -83.84695 | 27553 ft | 471 kts | 151° |
| 2026-05-03 20:40 | 32.90425 | -83.82455 | 27885 ft | 474 kts | 151° |
| 2026-05-03 20:40 | 32.87722 | -83.80200 | 28188 ft | 477 kts | 151° |
| 2026-05-03 20:40 | 32.85001 | -83.77929 | 28491 ft | 480 kts | 152° |
| 2026-05-03 20:41 | 32.82278 | -83.75659 | 28795 ft | 482 kts | 152° |
| 2026-05-03 20:41 | 32.79490 | -83.73336 | 29102 ft | 485 kts | 152° |
| 2026-05-03 20:41 | 32.76716 | -83.71028 | 29420 ft | 487 kts | 152° |
| 2026-05-03 20:41 | 32.73959 | -83.68736 | 29816 ft | 488 kts | 152° |
| 2026-05-03 20:42 | 32.71182 | -83.66428 | 30270 ft | 486 kts | 153° |
| 2026-05-03 20:42 | 32.68419 | -83.64130 | 30702 ft | 484 kts | 153° |
| 2026-05-03 20:42 | 32.65698 | -83.61787 | 31092 ft | 484 kts | 152° |
| 2026-05-03 20:42 | 32.62985 | -83.59390 | 31450 ft | 484 kts | 152° |
| 2026-05-03 20:43 | 32.60303 | -83.56993 | 31797 ft | 483 kts | 152° |
| 2026-05-03 20:43 | 32.57616 | -83.54591 | 32171 ft | 481 kts | 152° |
| 2026-05-03 20:43 | 32.54980 | -83.52241 | 32550 ft | 480 kts | 152° |
| 2026-05-03 20:43 | 32.52284 | -83.49849 | 32921 ft | 478 kts | 153° |
| 2026-05-03 20:44 | 32.49615 | -83.47490 | 33280 ft | 477 kts | 153° |
| 2026-05-03 20:44 | 32.46993 | -83.45180 | 33647 ft | 475 kts | 153° |
| 2026-05-03 20:44 | 32.44338 | -83.42843 | 34023 ft | 473 kts | 154° |
| 2026-05-03 20:45 | 32.39049 | -83.38200 | 34124 ft | 473 kts | 154° |
| 2026-05-03 20:45 | 32.33765 | -83.33566 | 34135 ft | 473 kts | 154° |
| 2026-05-03 20:46 | 32.28474 | -83.28931 | 34140 ft | 473 kts | 154° |
| 2026-05-03 20:46 | 32.23213 | -83.24328 | 34131 ft | 473 kts | 154° |
| 2026-05-03 20:47 | 32.17919 | -83.19703 | 34126 ft | 473 kts | 154° |
| 2026-05-03 20:47 | 32.12627 | -83.15085 | 34117 ft | 472 kts | 154° |
| 2026-05-03 20:48 | 32.07330 | -83.10470 | 34124 ft | 472 kts | 154° |
| 2026-05-03 20:48 | 32.02035 | -83.05864 | 34117 ft | 472 kts | 154° |